createdAt,value
2018-03-07T00:01:40.765Z,38.63
2018-03-07T00:04:09.110Z,38.83
2018-03-07T00:06:37.451Z,36.47
2018-03-07T00:09:05.846Z,38.70
2018-03-07T00:11:34.235Z,37.13
2018-03-07T00:14:02.638Z,37.27
2018-03-07T00:16:30.961Z,36.93
2018-03-07T00:18:59.297Z,36.77
2018-03-07T00:21:27.616Z,38.90
2018-03-07T00:23:55.946Z,36.43
2018-03-07T00:26:24.270Z,38.57
2018-03-07T00:28:52.654Z,36.30
2018-03-07T00:31:21.052Z,36.63
2018-03-07T00:33:49.434Z,36.40
2018-03-07T00:36:17.823Z,38.77
2018-03-07T00:38:46.161Z,37.40
2018-03-07T00:41:14.482Z,37.80
2018-03-07T00:43:42.907Z,40.80
2018-03-07T00:46:11.226Z,37.27
2018-03-07T00:48:39.594Z,39.07
2018-03-07T00:51:07.901Z,37.50
2018-03-07T00:53:36.251Z,38.97
2018-03-07T00:56:04.625Z,35.00
2018-03-07T00:58:33.053Z,35.90
2018-03-07T01:01:01.555Z,35.53
2018-03-07T01:03:29.877Z,36.07
2018-03-07T01:05:58.222Z,36.67
2018-03-07T01:08:26.562Z,35.80
2018-03-07T01:10:54.902Z,34.00
2018-03-07T01:13:23.322Z,36.60
2018-03-07T01:15:51.667Z,33.60
2018-03-07T01:18:19.984Z,36.27
2018-03-07T01:20:48.328Z,35.33
2018-03-07T01:23:16.687Z,35.47
2018-03-07T01:25:45.014Z,36.33
2018-03-07T01:28:13.359Z,35.10
2018-03-07T01:30:41.729Z,34.80
2018-03-07T01:33:10.058Z,34.87
2018-03-07T01:35:38.439Z,37.37
2018-03-07T01:38:06.829Z,38.37
2018-03-07T01:40:35.210Z,39.03
2018-03-07T01:43:03.607Z,39.83
2018-03-07T01:45:32.001Z,39.57
2018-03-07T01:48:00.359Z,36.67
2018-03-07T01:50:28.687Z,36.87
2018-03-07T01:52:57.068Z,40.53
2018-03-07T01:55:25.465Z,38.33
2018-03-07T01:57:53.802Z,40.47
2018-03-07T02:00:22.122Z,37.80
2018-03-07T02:02:51.638Z,41.90
2018-03-07T02:05:19.978Z,42.87
2018-03-07T02:07:48.302Z,44.00
2018-03-07T02:10:16.626Z,41.33
2018-03-07T02:12:44.974Z,38.30
2018-03-07T02:15:13.300Z,40.67
2018-03-07T02:17:41.636Z,41.47
2018-03-07T02:20:09.978Z,40.70
2018-03-07T02:22:38.315Z,41.57
2018-03-07T02:25:06.633Z,39.10
2018-03-07T02:27:34.959Z,41.37
2018-03-07T02:30:03.309Z,39.67
2018-03-07T02:32:31.621Z,40.83
2018-03-07T02:34:59.945Z,37.87
2018-03-07T02:37:28.287Z,39.30
2018-03-07T02:39:56.606Z,38.70
2018-03-07T02:42:24.952Z,44.27
2018-03-07T02:44:53.338Z,39.87
2018-03-07T02:47:21.869Z,41.00
2018-03-07T02:49:50.301Z,40.03
2018-03-07T02:52:18.693Z,41.10
2018-03-07T02:54:47.075Z,40.03
2018-03-07T02:57:15.479Z,41.00
2018-03-07T02:59:43.884Z,40.67
2018-03-07T03:02:12.294Z,42.23
2018-03-07T03:04:40.631Z,39.77
2018-03-07T03:07:08.944Z,41.57
2018-03-07T03:09:37.273Z,41.87
2018-03-07T03:12:05.589Z,40.90
2018-03-07T03:14:34.015Z,40.30
2018-03-07T03:17:02.343Z,39.90
2018-03-07T03:19:30.686Z,40.87
2018-03-07T03:21:59.007Z,44.77
2018-03-07T03:24:27.344Z,42.90
2018-03-07T03:26:55.808Z,43.80
2018-03-07T03:29:24.152Z,44.17
2018-03-07T03:31:52.586Z,45.43
2018-03-07T03:34:20.997Z,43.77
2018-03-07T03:36:49.288Z,43.07
2018-03-07T03:39:17.730Z,45.13
2018-03-07T03:41:46.118Z,42.47
2018-03-07T03:44:14.486Z,45.77
2018-03-07T03:46:42.812Z,45.13
2018-03-07T03:49:11.197Z,45.23
2018-03-07T03:51:39.612Z,49.60
2018-03-07T03:54:07.953Z,44.93
2018-03-07T03:56:36.378Z,46.20
2018-03-07T03:59:04.757Z,48.23
2018-03-07T04:01:33.081Z,49.13
2018-03-07T04:04:01.406Z,46.87
2018-03-07T04:06:29.736Z,47.30
2018-03-07T04:08:58.125Z,43.90
2018-03-07T04:11:26.523Z,45.30
2018-03-07T04:13:54.853Z,45.13
2018-03-07T04:16:23.209Z,43.80
2018-03-07T04:18:51.631Z,40.07
2018-03-07T04:21:19.964Z,42.33
2018-03-07T04:23:48.280Z,41.17
2018-03-07T04:26:16.616Z,45.10
2018-03-07T04:28:44.938Z,41.63
2018-03-07T04:31:13.292Z,37.10
2018-03-07T04:33:41.598Z,38.10
2018-03-07T04:36:09.936Z,38.00
2018-03-07T04:38:38.240Z,38.47
2018-03-07T04:41:06.568Z,36.73
2018-03-07T04:43:34.906Z,36.60
2018-03-07T04:46:03.285Z,35.03
2018-03-07T04:48:31.615Z,36.63
2018-03-07T04:50:59.942Z,36.47
2018-03-07T04:53:28.268Z,34.60
2018-03-07T04:55:56.590Z,36.47
2018-03-07T04:58:24.929Z,33.80
2018-03-07T05:00:53.270Z,37.13
2018-03-07T05:03:21.592Z,33.53
2018-03-07T05:05:49.921Z,33.67
2018-03-07T05:08:18.284Z,32.17
2018-03-07T05:10:46.738Z,32.93
2018-03-07T05:13:15.057Z,32.23
2018-03-07T05:15:43.411Z,32.37
2018-03-07T05:18:11.748Z,34.07
2018-03-07T05:20:40.075Z,32.97
2018-03-07T05:23:08.431Z,34.37
2018-03-07T05:25:36.729Z,32.87
2018-03-07T05:28:05.136Z,33.87
2018-03-07T05:30:33.449Z,34.90
2018-03-07T05:33:01.787Z,31.90
2018-03-07T05:35:30.135Z,30.87
2018-03-07T05:37:58.518Z,31.63
2018-03-07T05:40:26.839Z,31.40
2018-03-07T05:42:55.188Z,30.80
2018-03-07T05:45:23.588Z,34.50
2018-03-07T05:47:51.910Z,34.47
2018-03-07T05:50:20.256Z,33.70
2018-03-07T05:52:48.600Z,30.43
2018-03-07T05:55:16.915Z,33.30
2018-03-07T05:57:45.251Z,31.67
2018-03-07T06:00:13.649Z,27.53
2018-03-07T06:02:42.038Z,28.07
2018-03-07T06:05:11.973Z,25.83
2018-03-07T06:07:40.617Z,25.07
2018-03-07T06:10:09.031Z,26.67
2018-03-07T06:12:37.438Z,25.67
2018-03-07T06:15:05.826Z,28.10
2018-03-07T06:17:34.231Z,29.63
2018-03-07T06:20:02.640Z,29.40
2018-03-07T06:22:31.032Z,29.50
2018-03-07T06:24:59.402Z,26.40
2018-03-07T06:27:27.717Z,26.73
2018-03-07T06:29:56.115Z,27.63
2018-03-07T06:32:24.439Z,27.27
2018-03-07T06:34:52.768Z,26.80
2018-03-07T06:37:21.094Z,28.50
2018-03-07T06:39:49.450Z,27.63
2018-03-07T06:42:17.783Z,28.27
2018-03-07T06:44:46.128Z,28.77
2018-03-07T06:47:14.517Z,32.90
2018-03-07T06:49:42.837Z,28.30
2018-03-07T06:52:11.176Z,33.00
2018-03-07T06:54:39.744Z,30.63
2018-03-07T06:57:08.062Z,31.77
2018-03-07T06:59:36.393Z,34.57
2018-03-07T07:02:04.725Z,36.20
2018-03-07T07:04:33.055Z,34.03
2018-03-07T07:07:01.402Z,32.17
2018-03-07T07:09:29.761Z,29.83
2018-03-07T07:11:58.059Z,32.77
2018-03-07T07:14:26.469Z,30.30
2018-03-07T07:16:54.874Z,32.93
2018-03-07T07:19:23.186Z,33.60
2018-03-07T07:21:51.591Z,32.73
2018-03-07T07:24:19.928Z,35.63
2018-03-07T07:26:48.253Z,34.97
2018-03-07T07:29:16.572Z,36.23
2018-03-07T07:31:45.345Z,37.03
2018-03-07T07:34:13.671Z,40.50
2018-03-07T07:36:42.175Z,40.07
2018-03-07T07:39:10.513Z,35.93
2018-03-07T07:41:38.902Z,35.83
2018-03-07T07:44:07.232Z,36.73
2018-03-07T07:46:35.614Z,36.67
2018-03-07T07:49:03.918Z,36.00
2018-03-07T07:51:32.256Z,34.03
2018-03-07T07:54:00.680Z,32.07
2018-03-07T07:56:29.053Z,32.60
2018-03-07T07:58:57.462Z,32.37
2018-03-07T08:01:25.797Z,34.33
2018-03-07T08:03:54.121Z,36.40
2018-03-07T08:06:22.467Z,31.57
2018-03-07T08:08:50.787Z,34.07
2018-03-07T08:11:19.158Z,33.70
2018-03-07T08:13:47.603Z,35.90
2018-03-07T08:16:15.936Z,35.00
2018-03-07T08:18:44.273Z,34.23
2018-03-07T08:21:12.607Z,36.83
2018-03-07T08:23:40.951Z,32.50
2018-03-07T08:26:09.336Z,34.17
2018-03-07T08:28:37.758Z,34.73
2018-03-07T08:31:06.091Z,35.00
2018-03-07T08:33:34.426Z,35.73
2018-03-07T08:36:02.773Z,37.43
2018-03-07T08:38:31.103Z,37.23
2018-03-07T08:40:59.424Z,35.20
2018-03-07T08:43:27.816Z,37.33
2018-03-07T08:45:56.148Z,36.93
2018-03-07T08:48:24.466Z,38.57
2018-03-07T08:50:52.798Z,35.50
2018-03-07T08:53:21.295Z,37.07
2018-03-07T08:55:49.629Z,35.50
2018-03-07T08:58:18.041Z,36.40
2018-03-07T09:00:46.388Z,37.80
2018-03-07T09:03:14.700Z,36.53
2018-03-07T09:05:43.075Z,38.43
2018-03-07T09:08:11.377Z,35.77
2018-03-07T09:10:39.707Z,34.67
2018-03-07T09:13:08.024Z,39.70
2018-03-07T09:15:36.368Z,39.77
2018-03-07T09:18:04.799Z,40.77
2018-03-07T09:20:33.189Z,40.73
2018-03-07T09:23:01.522Z,42.10
2018-03-07T09:25:29.902Z,43.20
2018-03-07T09:27:58.224Z,42.33
2018-03-07T09:30:26.661Z,41.83
2018-03-07T09:32:55.079Z,45.13
2018-03-07T09:35:23.459Z,41.33
2018-03-07T09:37:51.799Z,42.07
2018-03-07T09:40:20.151Z,40.20
2018-03-07T09:42:48.485Z,39.20
2018-03-07T09:45:16.834Z,38.40
2018-03-07T09:47:45.170Z,40.63
2018-03-07T09:50:13.519Z,41.07
2018-03-07T09:52:41.903Z,40.03
2018-03-07T09:55:10.245Z,39.00
2018-03-07T09:57:38.622Z,40.33
2018-03-07T10:00:06.969Z,41.60
2018-03-07T10:02:35.308Z,38.97
2018-03-07T10:05:03.626Z,41.57
2018-03-07T10:07:32.038Z,40.47
2018-03-07T10:10:00.365Z,37.87
2018-03-07T10:12:28.719Z,40.03
2018-03-07T10:14:57.073Z,36.63
2018-03-07T10:17:25.415Z,35.57
2018-03-07T10:19:53.822Z,36.07
2018-03-07T10:22:22.152Z,40.70
2018-03-07T10:24:50.470Z,35.90
2018-03-07T10:27:18.874Z,35.53
2018-03-07T10:29:47.470Z,38.47
2018-03-07T10:32:15.810Z,35.40
2018-03-07T10:34:44.135Z,35.00
2018-03-07T10:37:12.474Z,34.37
2018-03-07T10:39:40.817Z,35.67
2018-03-07T10:42:09.146Z,34.67
2018-03-07T10:44:37.469Z,34.77
2018-03-07T10:47:05.887Z,37.77
2018-03-07T10:49:34.182Z,37.77
2018-03-07T10:52:02.512Z,38.97
2018-03-07T10:54:30.847Z,37.80
2018-03-07T10:56:59.167Z,37.37
2018-03-07T10:59:27.498Z,37.57
2018-03-07T11:01:55.877Z,35.63
2018-03-07T11:04:24.282Z,40.67
2018-03-07T11:06:52.634Z,38.27
2018-03-07T11:09:20.946Z,38.03
2018-03-07T11:11:49.351Z,40.83
2018-03-07T11:14:17.745Z,38.77
2018-03-07T11:16:46.154Z,40.90
2018-03-07T11:19:14.485Z,38.33
2018-03-07T11:21:42.905Z,39.67
2018-03-07T11:24:11.844Z,43.20
2018-03-07T11:26:40.189Z,42.33
2018-03-07T11:29:08.591Z,40.50
2018-03-07T11:31:36.995Z,45.00
2018-03-07T11:34:05.384Z,40.63
2018-03-07T11:36:33.787Z,43.90
2018-03-07T11:39:02.134Z,45.47
2018-03-07T11:41:30.573Z,46.40
2018-03-07T11:43:58.914Z,46.17
2018-03-07T11:46:27.239Z,45.97
2018-03-07T11:48:55.637Z,46.07
2018-03-07T11:51:23.968Z,47.57
2018-03-07T11:53:52.318Z,42.97
2018-03-07T11:56:20.712Z,47.27
2018-03-07T11:58:49.028Z,46.67
2018-03-07T12:01:17.387Z,47.67
2018-03-07T12:03:45.787Z,43.53
2018-03-07T12:06:14.109Z,46.40
2018-03-07T12:08:42.436Z,43.67
2018-03-07T12:11:10.793Z,51.47
2018-03-07T12:13:39.132Z,48.30
2018-03-07T12:16:07.450Z,47.67
2018-03-07T12:18:35.841Z,51.87
2018-03-07T12:21:04.158Z,52.17
2018-03-07T12:23:32.517Z,51.57
2018-03-07T12:26:00.905Z,50.90
2018-03-07T12:28:29.294Z,50.20
2018-03-07T12:30:57.695Z,51.10
2018-03-07T12:33:26.020Z,55.80
2018-03-07T12:35:54.377Z,54.47
2018-03-07T12:38:22.795Z,55.23
2018-03-07T12:40:51.130Z,53.80
2018-03-07T12:43:19.725Z,55.73
2018-03-07T12:45:48.272Z,54.60
2018-03-07T12:48:16.662Z,56.73
2018-03-07T12:50:45.050Z,54.90
2018-03-07T12:53:13.423Z,54.87
2018-03-07T12:55:41.842Z,55.17
2018-03-07T12:58:10.173Z,51.57
2018-03-07T13:00:38.830Z,55.57
2018-03-07T13:03:07.470Z,54.07
2018-03-07T13:05:35.834Z,52.73
2018-03-07T13:08:04.189Z,49.23
2018-03-07T13:10:32.539Z,53.77
2018-03-07T13:13:01.888Z,48.17
2018-03-07T13:15:30.225Z,51.83
2018-03-07T13:17:58.614Z,53.00
2018-03-07T13:20:26.961Z,50.83
2018-03-07T13:22:55.307Z,51.13
2018-03-07T13:25:23.637Z,51.90
2018-03-07T13:27:52.004Z,49.40
2018-03-07T13:30:20.610Z,53.13
2018-03-07T13:32:48.985Z,50.10
2018-03-07T13:35:17.312Z,51.17
2018-03-07T13:37:45.653Z,51.67
2018-03-07T13:40:13.995Z,54.70
2018-03-07T13:42:42.323Z,53.37
2018-03-07T13:45:10.869Z,51.83
2018-03-07T13:47:39.335Z,52.87
2018-03-07T13:50:07.658Z,57.10
2018-03-07T13:52:36.015Z,52.60
2018-03-07T13:55:04.355Z,55.40
2018-03-07T13:57:32.710Z,57.37
2018-03-07T14:00:01.052Z,55.73
2018-03-07T14:02:29.372Z,57.60
2018-03-07T14:04:57.774Z,54.63
2018-03-07T14:07:26.098Z,53.70
2018-03-07T14:09:54.466Z,58.83
2018-03-07T14:12:22.792Z,53.43
2018-03-07T14:14:51.115Z,56.60
2018-03-07T14:17:19.442Z,56.63
2018-03-07T14:19:47.837Z,56.77
2018-03-07T14:22:16.175Z,54.67
2018-03-07T14:24:44.510Z,56.30
2018-03-07T14:27:12.824Z,52.83
2018-03-07T14:29:41.395Z,48.90
2018-03-07T14:32:09.807Z,52.47
2018-03-07T14:34:38.239Z,53.10
2018-03-07T14:37:06.492Z,47.13
2018-03-07T14:39:34.877Z,44.73
2018-03-07T14:42:03.272Z,48.17
2018-03-07T14:44:31.608Z,45.53
2018-03-07T14:46:59.985Z,40.87
2018-03-07T14:49:28.297Z,46.87
2018-03-07T14:51:56.630Z,48.20
2018-03-07T14:54:24.946Z,45.70
2018-03-07T14:56:53.288Z,45.80
2018-03-07T14:59:22.440Z,45.80
2018-03-07T15:01:50.766Z,40.60
2018-03-07T15:04:19.144Z,40.90
2018-03-07T15:06:47.645Z,38.77
2018-03-07T15:09:15.962Z,41.10
2018-03-07T15:11:44.341Z,39.90
2018-03-07T15:14:12.654Z,36.63
2018-03-07T15:16:41.002Z,35.93
2018-03-07T15:19:09.322Z,34.37
2018-03-07T15:21:37.654Z,33.00
2018-03-07T15:24:05.998Z,33.47
2018-03-07T15:26:34.337Z,34.40
2018-03-07T15:29:02.655Z,31.90
2018-03-07T15:31:31.057Z,31.00
2018-03-07T15:33:59.383Z,32.70
2018-03-07T15:36:27.739Z,31.47
2018-03-07T15:38:56.054Z,31.00
2018-03-07T15:41:24.724Z,30.10
2018-03-07T15:43:53.194Z,33.20
2018-03-07T15:46:22.505Z,30.13
2018-03-07T15:48:50.818Z,30.97
2018-03-07T15:51:19.169Z,28.43
2018-03-07T15:53:47.526Z,30.37
2018-03-07T15:56:15.978Z,29.83
2018-03-07T15:58:44.300Z,28.93
2018-03-07T16:01:12.658Z,27.07
2018-03-07T16:03:41.043Z,28.40
2018-03-07T16:06:09.357Z,29.87
2018-03-07T16:08:37.767Z,29.23
2018-03-07T16:11:06.087Z,27.70
2018-03-07T16:13:34.423Z,31.87
2018-03-07T16:16:02.757Z,31.87
2018-03-07T16:18:31.141Z,28.73
2018-03-07T16:20:59.468Z,28.67
2018-03-07T16:23:27.793Z,29.83
2018-03-07T16:25:56.225Z,28.93
2018-03-07T16:28:24.633Z,28.97
2018-03-07T16:30:53.153Z,28.90
2018-03-07T16:33:21.553Z,31.57
2018-03-07T16:35:49.892Z,29.60
2018-03-07T16:38:18.281Z,28.03
2018-03-07T16:40:46.685Z,27.87
2018-03-07T16:43:15.002Z,28.03
2018-03-07T16:45:43.318Z,26.30
2018-03-07T16:48:12.271Z,25.83
2018-03-07T16:50:40.592Z,27.90
2018-03-07T16:53:08.938Z,28.27
2018-03-07T16:55:37.337Z,29.20
2018-03-07T16:58:05.660Z,28.23
2018-03-07T17:00:34.017Z,27.47
2018-03-07T17:03:02.430Z,26.17
2018-03-07T17:05:30.819Z,23.67
2018-03-07T17:07:59.135Z,21.43
2018-03-07T17:10:27.470Z,22.37
2018-03-07T17:12:55.792Z,22.77
2018-03-07T17:15:24.179Z,18.10
2018-03-07T17:17:52.566Z,18.27
2018-03-07T17:20:20.886Z,16.30
2018-03-07T17:22:49.195Z,19.63
2018-03-07T17:25:17.530Z,15.80
2018-03-07T17:27:45.889Z,16.10
2018-03-07T17:30:14.254Z,17.27
2018-03-07T17:32:42.572Z,14.40
2018-03-07T17:35:10.954Z,18.40
2018-03-07T17:37:39.313Z,16.23
2018-03-07T17:40:07.733Z,14.60
2018-03-07T17:42:36.083Z,16.20
2018-03-07T17:45:04.535Z,16.93
2018-03-07T17:47:45.812Z,15.13
2018-03-07T17:50:15.765Z,14.63
2018-03-07T17:52:44.086Z,12.60
2018-03-07T17:55:12.478Z,12.93
2018-03-07T17:57:40.801Z,12.03
2018-03-07T18:00:09.168Z,12.07
2018-03-07T18:02:37.579Z,13.30
2018-03-07T18:05:05.926Z,10.63
2018-03-07T18:07:34.242Z,9.43
2018-03-07T18:10:02.750Z,10.20
2018-03-07T18:12:31.077Z,8.97
2018-03-07T18:14:59.449Z,8.97
2018-03-07T18:17:27.805Z,8.60
2018-03-07T18:19:56.111Z,9.83
2018-03-07T18:22:24.483Z,8.60
2018-03-07T18:24:53.008Z,9.40
2018-03-07T18:27:21.350Z,9.80
2018-03-07T18:29:49.653Z,9.00
2018-03-07T18:32:17.972Z,8.00
2018-03-07T18:34:46.332Z,8.37
2018-03-07T18:37:14.658Z,8.67
2018-03-07T18:39:43.053Z,8.80
2018-03-07T18:42:11.419Z,8.37
2018-03-07T18:44:39.738Z,8.60
2018-03-07T18:47:08.169Z,9.80
2018-03-07T18:49:36.491Z,8.40
2018-03-07T18:52:04.807Z,8.03
2018-03-07T18:54:33.190Z,7.63
2018-03-07T18:57:01.535Z,8.17
2018-03-07T18:59:29.861Z,7.80
2018-03-07T19:01:58.261Z,8.60
2018-03-07T19:04:26.577Z,8.93
2018-03-07T19:06:54.891Z,7.70
2018-03-07T19:09:23.219Z,6.70
2018-03-07T19:11:51.566Z,6.80
2018-03-07T19:14:19.928Z,7.10
2018-03-07T19:16:48.343Z,8.50
2018-03-07T19:19:16.841Z,7.43
2018-03-07T19:21:45.478Z,7.00
2018-03-07T19:24:13.797Z,8.00
2018-03-07T19:26:42.105Z,7.17
2018-03-07T19:29:10.562Z,7.20
2018-03-07T19:31:38.845Z,7.63
2018-03-07T19:34:07.157Z,7.67
2018-03-07T19:36:35.490Z,7.03
2018-03-07T19:39:03.841Z,6.50
2018-03-07T19:41:32.177Z,7.00
2018-03-07T19:44:00.582Z,6.93
2018-03-07T19:46:28.883Z,6.70
2018-03-07T19:48:57.240Z,6.90
2018-03-07T19:51:25.631Z,7.33
2018-03-07T19:53:53.985Z,7.10
2018-03-07T19:56:22.315Z,7.57
2018-03-07T19:58:50.658Z,7.73
2018-03-07T20:01:19.002Z,7.37
2018-03-07T20:03:47.384Z,6.90
2018-03-07T20:06:15.717Z,7.10
2018-03-07T20:08:44.080Z,6.20
2018-03-07T20:11:12.394Z,7.90
2018-03-07T20:13:40.706Z,7.07
2018-03-07T20:16:09.049Z,6.30
2018-03-07T20:18:37.359Z,7.13
2018-03-07T20:21:05.677Z,6.70
2018-03-07T20:23:33.998Z,7.63
2018-03-07T20:26:02.317Z,7.30
2018-03-07T20:28:30.653Z,6.73
2018-03-07T20:30:58.974Z,6.33
2018-03-07T20:33:27.282Z,6.70
2018-03-07T20:35:56.419Z,7.13
2018-03-07T20:38:24.739Z,6.17
2018-03-07T20:40:53.095Z,7.10
2018-03-07T20:43:21.479Z,6.43
2018-03-07T20:45:49.796Z,6.23
2018-03-07T20:48:18.098Z,5.90
2018-03-07T20:50:46.410Z,6.37
2018-03-07T20:53:14.830Z,5.37
2018-03-07T20:55:43.209Z,5.83
2018-03-07T20:58:11.521Z,7.17
2018-03-07T21:00:39.901Z,6.10
2018-03-07T21:03:08.282Z,7.10
2018-03-07T21:05:36.681Z,6.50
2018-03-07T21:08:05.090Z,5.80
2018-03-07T21:10:33.770Z,6.03
2018-03-07T21:13:02.089Z,5.63
2018-03-07T21:15:30.572Z,6.20
2018-03-07T21:17:58.889Z,5.87
2018-03-07T21:20:27.254Z,5.70
2018-03-07T21:22:55.641Z,5.97
2018-03-07T21:25:25.065Z,5.10
2018-03-07T21:27:53.670Z,5.50
2018-03-07T21:30:21.975Z,5.80
2018-03-07T21:32:50.434Z,4.53
2018-03-07T21:35:19.252Z,6.67
2018-03-07T21:37:47.579Z,5.97
2018-03-07T21:40:15.878Z,5.40
2018-03-07T21:42:44.194Z,5.97
2018-03-07T21:45:12.611Z,5.77
2018-03-07T21:47:41.031Z,6.00
2018-03-07T21:50:09.342Z,5.03
2018-03-07T21:52:37.667Z,5.50
2018-03-07T21:55:05.980Z,5.40
2018-03-07T21:57:34.314Z,6.50
2018-03-07T22:00:02.661Z,5.43
2018-03-07T22:02:31.046Z,5.60
2018-03-07T22:04:59.460Z,5.80
2018-03-07T22:07:27.777Z,5.63
2018-03-07T22:09:56.102Z,5.77
2018-03-07T22:12:24.417Z,5.77
2018-03-07T22:14:52.761Z,5.70
2018-03-07T22:17:21.553Z,6.00
2018-03-07T22:19:49.916Z,5.80
2018-03-07T22:22:18.213Z,5.97
2018-03-07T22:24:46.525Z,6.67
2018-03-07T22:27:14.836Z,6.70
2018-03-07T22:29:43.155Z,5.27
2018-03-07T22:32:11.476Z,5.27
2018-03-07T22:34:39.841Z,5.53
2018-03-07T22:37:08.153Z,6.63
2018-03-07T22:39:36.513Z,5.30
2018-03-07T22:42:04.825Z,6.30
2018-03-07T22:44:33.136Z,5.13
2018-03-07T22:47:01.455Z,6.60
2018-03-07T22:49:29.855Z,4.80
2018-03-07T22:51:58.170Z,4.80
2018-03-07T22:54:26.567Z,5.67
2018-03-07T22:56:54.926Z,5.30
2018-03-07T22:59:23.248Z,5.43
2018-03-07T23:01:51.569Z,5.30
2018-03-07T23:04:19.881Z,6.20
2018-03-07T23:06:48.226Z,5.60
2018-03-07T23:09:16.540Z,5.40
2018-03-07T23:11:44.931Z,6.10
2018-03-07T23:14:13.395Z,5.07
2018-03-07T23:16:41.734Z,4.80
2018-03-07T23:19:10.076Z,4.97
2018-03-07T23:21:38.404Z,5.80
2018-03-07T23:24:06.717Z,4.83
2018-03-07T23:26:35.037Z,4.87
2018-03-07T23:29:03.344Z,4.23
2018-03-07T23:31:31.733Z,6.03
2018-03-07T23:34:00.048Z,4.73
2018-03-07T23:36:28.358Z,5.90
2018-03-07T23:38:56.693Z,5.47
2018-03-07T23:41:25.005Z,4.87
2018-03-07T23:43:53.320Z,5.50
2018-03-07T23:46:21.649Z,5.10
2018-03-07T23:48:49.941Z,5.43
2018-03-07T23:51:18.279Z,4.47
2018-03-07T23:53:46.590Z,5.07
2018-03-07T23:56:14.904Z,5.40
2018-03-07T23:58:43.207Z,5.23
